Time;durP1;ratioP1;P1;durP2;ratioP2;P2;SDS_P1;SDS_P2;PMS_P1;PMS_P2;Temp;Humidity;BMP_temperature;BMP_pressure;BME280_temperature;BME280_humidity;BME280_pressure;Samples;Min_cycle;Max_cycle;Signal;HPM_P1;HPM_P2
2022/08/26 00:01:03;;;;;;;18.40;11.77;;;23.20;1.00;;;;;;5024220;28;20535;-85
2022/08/26 00:03:30;;;;;;;16.10;11.40;;;23.10;1.00;;;;;;5041123;28;20493;-82
2022/08/26 00:05:57;;;;;;;14.27;11.30;;;23.10;1.00;;;;;;5029051;28;21176;-83
2022/08/26 00:08:25;;;;;;;15.60;11.70;;;23.10;1.00;;;;;;5030540;28;20538;-84
2022/08/26 00:10:52;;;;;;;15.30;11.80;;;23.10;1.00;;;;;;5033829;28;20521;-83
2022/08/26 00:13:19;;;;;;;16.57;11.70;;;23.10;1.00;;;;;;5030550;28;20473;-82
2022/08/26 00:15:50;;;;;;;15.00;11.53;;;23.10;1.00;;;;;;5026441;28;20560;-82
2022/08/26 00:18:17;;;;;;;14.73;11.30;;;23.10;1.00;;;;;;5031440;28;20461;-84
2022/08/26 00:20:45;;;;;;;12.53;11.20;;;23.10;1.00;;;;;;5032806;28;20560;-82
2022/08/26 00:23:12;;;;;;;16.23;11.10;;;23.10;1.00;;;;;;5036344;28;20444;-83
2022/08/26 00:25:39;;;;;;;14.50;12.00;;;23.00;1.00;;;;;;5033895;28;20499;-82
2022/08/26 00:28:06;;;;;;;15.43;11.47;;;23.00;1.00;;;;;;5033679;28;20476;-83
2022/08/26 00:30:34;;;;;;;16.90;11.73;;;22.90;1.00;;;;;;5035821;28;20437;-83
2022/08/26 00:33:04;;;;;;;14.60;11.57;;;22.90;1.00;;;;;;5032676;28;20490;-83
2022/08/26 00:35:34;;;;;;;14.57;12.93;;;22.80;1.00;;;;;;5039740;28;20470;-84
2022/08/26 00:38:03;;;;;;;13.53;11.83;;;22.80;1.00;;;;;;5038041;28;20433;-83
2022/08/26 00:40:33;;;;;;;16.30;13.07;;;22.80;1.00;;;;;;5034501;28;20910;-82
2022/08/26 00:43:01;;;;;;;14.77;11.70;;;22.90;1.00;;;;;;5033487;28;20937;-82
2022/08/26 00:45:33;;;;;;;16.87;12.17;;;22.80;1.00;;;;;;5030149;28;20897;-83
2022/08/26 00:48:05;;;;;;;12.73;10.80;;;22.80;1.00;;;;;;5030688;28;20457;-83
2022/08/26 00:50:36;;;;;;;17.33;12.00;;;22.80;1.00;;;;;;5033417;28;20519;-83
2022/08/26 00:53:20;;;;;;;16.77;12.30;;;22.70;1.00;;;;;;5037005;28;21007;-82
2022/08/26 00:55:51;;;;;;;18.37;12.37;;;22.70;1.00;;;;;;5033427;28;20452;-81
2022/08/26 00:58:19;;;;;;;15.47;11.70;;;22.60;1.00;;;;;;5029096;28;20461;-82
2022/08/26 01:00:46;;;;;;;15.73;12.10;;;22.60;1.00;;;;;;5029700;28;20464;-82
2022/08/26 01:03:16;;;;;;;14.77;12.47;;;22.70;1.00;;;;;;5019534;28;20480;-83
2022/08/26 01:05:45;;;;;;;21.27;11.90;;;22.60;1.00;;;;;;5030917;28;20457;-82
2022/08/26 01:08:12;;;;;;;17.83;12.90;;;22.60;1.00;;;;;;5029759;28;20468;-83
2022/08/26 01:10:39;;;;;;;18.37;13.10;;;22.60;1.00;;;;;;5025786;28;20583;-83
2022/08/26 01:13:09;;;;;;;17.77;12.93;;;22.60;1.00;;;;;;5043894;28;21076;-84
2022/08/26 01:15:41;;;;;;;16.40;12.90;;;22.70;1.00;;;;;;5034085;28;21287;-84
2022/08/26 01:18:08;;;;;;;15.00;12.23;;;22.70;1.00;;;;;;5029216;28;20476;-82
2022/08/26 01:20:43;;;;;;;18.37;11.63;;;22.80;1.00;;;;;;5032627;28;21131;-81
2022/08/26 01:23:13;;;;;;;15.33;12.23;;;22.80;1.00;;;;;;5033721;28;20961;-81
2022/08/26 01:25:44;;;;;;;16.53;12.00;;;22.80;1.00;;;;;;5031208;28;20473;-82
2022/08/26 01:28:16;;;;;;;16.73;11.93;;;22.90;1.00;;;;;;5033290;28;20489;-81
2022/08/26 01:30:45;;;;;;;20.30;12.80;;;22.90;1.00;;;;;;5020370;28;20956;-81
2022/08/26 01:33:19;;;;;;;16.30;12.23;;;22.90;1.00;;;;;;5029202;28;20481;-82
2022/08/26 01:35:47;;;;;;;19.67;12.80;;;22.90;1.00;;;;;;5027525;28;20454;-82
2022/08/26 01:38:16;;;;;;;18.97;13.10;;;22.80;1.00;;;;;;5028822;28;20556;-82
2022/08/26 01:40:44;;;;;;;15.43;12.13;;;22.90;1.00;;;;;;5028021;28;20424;-82
2022/08/26 01:43:17;;;;;;;17.53;12.30;;;22.90;1.00;;;;;;5041037;28;20470;-81
2022/08/26 01:45:46;;;;;;;19.20;12.03;;;22.90;1.00;;;;;;5025140;28;20461;-82
2022/08/26 01:48:17;;;;;;;18.80;13.83;;;22.90;1.00;;;;;;5032119;28;20504;-82
2022/08/26 01:50:45;;;;;;;14.33;11.80;;;22.90;1.00;;;;;;5031668;28;20545;-82
2022/08/26 01:53:18;;;;;;;17.10;12.97;;;22.90;1.00;;;;;;5033002;28;20496;-82
2022/08/26 01:55:48;;;;;;;18.17;13.20;;;22.90;1.00;;;;;;5028910;28;20542;-81
2022/08/26 01:58:19;;;;;;;18.87;12.27;;;22.80;1.00;;;;;;5032262;28;20461;-80
2022/08/26 02:00:46;;;;;;;15.20;12.53;;;22.80;1.00;;;;;;5028972;28;20469;-81
2022/08/26 02:03:20;;;;;;;14.73;12.60;;;22.70;1.00;;;;;;5030289;28;20457;-81
2022/08/26 02:05:59;;;;;;;14.23;12.23;;;22.80;1.00;;;;;;5030902;28;20870;-81
2022/08/26 02:08:34;;;;;;;16.83;12.80;;;22.80;1.00;;;;;;5024464;28;20520;-82
2022/08/26 02:11:01;;;;;;;16.50;13.10;;;22.70;1.00;;;;;;5032223;28;20521;-80
2022/08/26 02:13:31;;;;;;;18.03;12.60;;;22.80;1.00;;;;;;5025990;28;20504;-81
2022/08/26 02:15:59;;;;;;;21.53;13.73;;;22.80;1.00;;;;;;5031579;28;20516;-82
2022/08/26 02:18:32;;;;;;;16.90;12.47;;;22.70;1.00;;;;;;5033725;28;20465;-81
2022/08/26 02:20:59;;;;;;;22.00;12.73;;;22.70;1.00;;;;;;5029645;28;20925;-82
2022/08/26 02:23:27;;;;;;;19.43;14.20;;;22.70;1.00;;;;;;5032513;28;20437;-81
2022/08/26 02:25:59;;;;;;;16.43;12.80;;;22.70;1.00;;;;;;5027679;28;20478;-82
2022/08/26 02:28:33;;;;;;;15.50;13.03;;;22.70;1.00;;;;;;5031057;28;20573;-81
2022/08/26 02:30:59;;;;;;;17.60;12.80;;;22.60;1.00;;;;;;5035570;28;20473;-82
2022/08/26 02:33:28;;;;;;;18.70;14.47;;;22.60;1.00;;;;;;5030234;28;21049;-82
2022/08/26 02:35:55;;;;;;;14.97;12.80;;;22.60;1.00;;;;;;5026849;28;20548;-82
2022/08/26 02:38:22;;;;;;;20.70;14.70;;;22.60;1.00;;;;;;5029539;28;20588;-83
2022/08/26 02:40:53;;;;;;;17.17;13.70;;;22.60;1.00;;;;;;5033208;28;20456;-84
2022/08/26 02:43:20;;;;;;;16.37;13.17;;;22.50;1.00;;;;;;5032257;28;20473;-84
2022/08/26 02:45:48;;;;;;;18.00;12.70;;;22.50;1.00;;;;;;5034299;28;20948;-84
2022/08/26 02:48:17;;;;;;;22.83;14.20;;;22.60;1.00;;;;;;5030301;28;21375;-82
2022/08/26 02:50:46;;;;;;;20.60;13.77;;;22.50;1.00;;;;;;5032665;28;20409;-83
2022/08/26 02:53:14;;;;;;;20.43;15.30;;;22.40;1.00;;;;;;5031877;28;20484;-84
2022/08/26 02:55:43;;;;;;;19.30;12.77;;;22.40;1.00;;;;;;5028754;28;20458;-84
2022/08/26 02:58:11;;;;;;;22.77;13.90;;;22.40;1.00;;;;;;5030665;28;20496;-83
2022/08/26 03:00:39;;;;;;;19.77;14.00;;;22.40;1.00;;;;;;5023899;28;21285;-82
2022/08/26 03:03:07;;;;;;;20.10;13.73;;;22.50;1.00;;;;;;5044962;28;20556;-83
2022/08/26 03:05:35;;;;;;;15.23;12.73;;;22.50;1.00;;;;;;5031410;28;20464;-83
2022/08/26 03:08:03;;;;;;;19.77;15.23;;;22.50;1.00;;;;;;5027265;28;20548;-83
2022/08/26 03:10:30;;;;;;;19.03;13.87;;;22.50;1.00;;;;;;5029580;28;20505;-83
2022/08/26 03:12:58;;;;;;;19.87;13.97;;;22.50;1.00;;;;;;5028642;28;20472;-83
2022/08/26 03:15:27;;;;;;;17.57;14.20;;;22.50;1.00;;;;;;5031388;28;20473;-82
2022/08/26 03:17:55;;;;;;;25.53;13.37;;;22.50;1.00;;;;;;5027690;28;20488;-82
2022/08/26 03:20:23;;;;;;;23.87;15.27;;;22.50;1.00;;;;;;5026020;28;20972;-83
2022/08/26 03:22:52;;;;;;;25.80;22.17;;;22.50;1.00;;;;;;5027525;28;20472;-83
2022/08/26 03:25:22;;;;;;;18.57;14.53;;;22.50;1.00;;;;;;5034348;28;20584;-82
2022/08/26 03:27:49;;;;;;;21.37;13.73;;;22.50;1.00;;;;;;5029911;28;20556;-83
2022/08/26 03:33:05;;;;;;;21.53;14.03;;;22.30;1.00;;;;;;5026401;28;20563;-84
2022/08/26 03:35:34;;;;;;;22.40;14.87;;;22.20;1.00;;;;;;5031315;28;20770;-84
2022/08/26 03:38:03;;;;;;;22.57;14.40;;;22.20;1.00;;;;;;5034630;28;20424;-83
2022/08/26 03:40:32;;;;;;;17.00;13.30;;;22.20;1.00;;;;;;5028445;28;20567;-81
2022/08/26 03:42:59;;;;;;;18.73;14.93;;;22.20;1.00;;;;;;5027359;28;20464;-82
2022/08/26 03:45:26;;;;;;;19.73;15.30;;;22.20;1.00;;;;;;5028247;28;20540;-82
2022/08/26 03:47:55;;;;;;;18.93;14.20;;;22.30;1.00;;;;;;5029459;28;20493;-83
2022/08/26 03:50:24;;;;;;;22.83;14.87;;;22.30;1.00;;;;;;5028571;28;20801;-82
2022/08/26 03:52:53;;;;;;;20.60;14.50;;;22.30;1.00;;;;;;5026787;28;20485;-82
2022/08/26 03:55:22;;;;;;;22.30;15.53;;;22.30;1.00;;;;;;5028721;28;20544;-82
2022/08/26 03:57:49;;;;;;;19.10;14.83;;;22.30;1.00;;;;;;5027470;28;20491;-82
2022/08/26 04:00:17;;;;;;;21.80;15.47;;;22.30;1.00;;;;;;5030159;28;20465;-82
2022/08/26 04:02:51;;;;;;;19.43;13.70;;;22.30;1.00;;;;;;5022332;28;21269;-82
2022/08/26 04:05:20;;;;;;;22.30;15.23;;;22.30;1.00;;;;;;5025450;28;20455;-82
2022/08/26 04:07:50;;;;;;;18.50;14.60;;;22.20;1.00;;;;;;5030829;28;20919;-83
2022/08/26 04:10:20;;;;;;;19.43;14.07;;;22.20;1.00;;;;;;5027320;28;20461;-82
2022/08/26 04:12:50;;;;;;;23.03;14.73;;;22.20;1.00;;;;;;5022248;28;20473;-84
2022/08/26 04:15:17;;;;;;;17.73;16.10;;;22.20;1.00;;;;;;5029212;28;20464;-84
2022/08/26 04:17:46;;;;;;;20.57;15.03;;;22.30;1.00;;;;;;5028909;28;20461;-83
2022/08/26 04:20:14;;;;;;;24.40;14.47;;;22.20;1.00;;;;;;5031222;28;20473;-84
2022/08/26 04:22:42;;;;;;;19.20;14.63;;;22.20;1.00;;;;;;5032796;28;20458;-85
2022/08/26 04:25:11;;;;;;;18.87;15.10;;;22.20;1.00;;;;;;5029694;28;20457;-78
2022/08/26 04:27:38;;;;;;;18.77;14.83;;;22.20;1.00;;;;;;5027444;28;20429;-79
2022/08/26 04:30:07;;;;;;;23.73;16.53;;;22.20;1.00;;;;;;5027031;28;20457;-79
2022/08/26 04:32:34;;;;;;;19.83;16.07;;;22.20;1.00;;;;;;5029574;28;20470;-79
2022/08/26 04:35:02;;;;;;;18.77;15.27;;;22.20;1.00;;;;;;5027157;28;20418;-80
2022/08/26 04:37:33;;;;;;;23.73;14.80;;;22.20;1.00;;;;;;5023600;28;20461;-79
2022/08/26 04:40:00;;;;;;;22.37;15.57;;;22.10;1.00;;;;;;5027223;28;20461;-80
2022/08/26 04:42:30;;;;;;;20.80;14.80;;;22.10;1.00;;;;;;5028843;28;20461;-79
2022/08/26 04:44:57;;;;;;;20.80;14.73;;;22.10;1.00;;;;;;5028485;28;20426;-80
2022/08/26 04:47:24;;;;;;;16.60;14.33;;;22.20;1.00;;;;;;5028110;28;20463;-81
2022/08/26 04:49:54;;;;;;;18.27;15.23;;;22.10;1.00;;;;;;5028736;28;20461;-80
2022/08/26 04:52:22;;;;;;;30.50;16.10;;;22.10;1.00;;;;;;5030909;28;20480;-80
2022/08/26 04:54:48;;;;;;;20.87;15.80;;;22.10;1.00;;;;;;5032207;28;20841;-79
2022/08/26 04:57:18;;;;;;;20.70;15.60;;;22.20;1.00;;;;;;5029350;28;20997;-79
2022/08/26 04:59:46;;;;;;;17.77;15.87;;;22.20;1.00;;;;;;5023737;28;21285;-78
2022/08/26 05:02:13;;;;;;;18.40;15.40;;;22.20;1.00;;;;;;5033330;28;20516;-79
2022/08/26 05:04:42;;;;;;;19.93;15.00;;;22.30;1.00;;;;;;5035699;28;20485;-78
2022/08/26 05:07:10;;;;;;;20.67;14.00;;;22.30;1.00;;;;;;5035253;28;20966;-79
2022/08/26 05:09:39;;;;;;;19.47;15.40;;;22.40;1.00;;;;;;5029047;28;20537;-79
2022/08/26 05:12:09;;;;;;;19.47;15.77;;;22.50;1.00;;;;;;5033186;28;20469;-79
2022/08/26 05:14:36;;;;;;;17.30;14.67;;;22.50;1.00;;;;;;5021681;28;20434;-79
2022/08/26 05:17:04;;;;;;;24.30;16.83;;;22.50;1.00;;;;;;5027675;28;20465;-79
2022/08/26 05:19:33;;;;;;;17.80;15.43;;;22.60;1.00;;;;;;5023883;28;20461;-78
2022/08/26 05:22:00;;;;;;;19.23;15.70;;;22.70;1.00;;;;;;5029883;28;20474;-79
2022/08/26 05:24:28;;;;;;;19.27;15.20;;;22.70;1.00;;;;;;5031179;28;20468;-77
2022/08/26 05:26:56;;;;;;;21.40;15.93;;;22.80;1.00;;;;;;5033153;28;20591;-78
2022/08/26 05:29:24;;;;;;;21.10;16.43;;;22.80;1.00;;;;;;5030605;28;20920;-77
2022/08/26 05:31:53;;;;;;;18.80;15.70;;;22.80;1.00;;;;;;5032258;28;20542;-79
2022/08/26 05:34:23;;;;;;;21.07;15.87;;;22.90;1.00;;;;;;5031575;28;20468;-80
2022/08/26 05:36:52;;;;;;;21.70;15.50;;;23.00;1.00;;;;;;5033830;28;20475;-79
2022/08/26 05:39:20;;;;;;;20.70;15.60;;;23.00;1.00;;;;;;5032177;28;20671;-79
2022/08/26 05:41:48;;;;;;;22.07;16.43;;;23.10;1.00;;;;;;5027312;28;20891;-81
2022/08/26 05:44:17;;;;;;;28.03;16.80;;;23.10;1.00;;;;;;5029964;28;20465;-81
2022/08/26 05:46:45;;;;;;;19.67;16.10;;;23.20;1.00;;;;;;5025870;28;20484;-81
2022/08/26 05:49:14;;;;;;;20.03;16.17;;;23.30;1.00;;;;;;5029535;28;20475;-81
2022/08/26 05:51:45;;;;;;;23.17;16.30;;;23.40;1.00;;;;;;5028607;28;20476;-81
2022/08/26 05:54:12;;;;;;;21.77;16.10;;;23.40;1.00;;;;;;5030218;28;20484;-82
2022/08/26 05:56:39;;;;;;;24.60;16.17;;;23.50;1.00;;;;;;5028811;28;20458;-81
2022/08/26 05:59:07;;;;;;;18.70;16.47;;;23.60;1.00;;;;;;5024750;28;20485;-82
2022/08/26 06:01:48;;;;;;;21.00;15.50;;;23.60;1.00;;;;;;5028832;28;20477;-81
2022/08/26 06:04:16;;;;;;;24.27;15.30;;;23.70;1.00;;;;;;5029871;28;20461;-80
2022/08/26 06:06:44;;;;;;;23.97;16.10;;;23.70;1.00;;;;;;5028995;28;20481;-80
2022/08/26 06:09:11;;;;;;;20.40;16.33;;;23.70;1.00;;;;;;5027893;28;20443;-80
2022/08/26 06:11:39;;;;;;;19.43;15.13;;;23.70;1.00;;;;;;5024009;28;20505;-81
2022/08/26 06:14:07;;;;;;;21.47;16.10;;;23.70;1.00;;;;;;5027624;28;20540;-81
2022/08/26 06:16:37;;;;;;;24.20;16.57;;;23.70;1.00;;;;;;5021823;28;20469;-83
2022/08/26 06:19:04;;;;;;;24.47;15.40;;;23.80;1.00;;;;;;5030353;28;20425;-82
2022/08/26 06:21:35;;;;;;;22.00;15.63;;;23.90;1.00;;;;;;5030121;28;20477;-83
2022/08/26 06:26:52;;;;;;;23.07;16.20;;;24.00;1.00;;;;;;5035507;28;20461;-83
2022/08/26 06:29:21;;;;;;;20.73;16.10;;;24.10;1.00;;;;;;5030207;28;20449;-82
2022/08/26 06:31:49;;;;;;;21.10;15.30;;;24.20;1.00;;;;;;5033753;28;20541;-83
2022/08/26 06:34:16;;;;;;;22.33;16.43;;;24.30;1.00;;;;;;5030963;28;20557;-81
2022/08/26 06:36:44;;;;;;;22.53;15.30;;;24.30;1.00;;;;;;5029076;28;20463;-84
2022/08/26 06:39:14;;;;;;;18.27;14.00;;;24.30;1.00;;;;;;5031498;28;20516;-82
2022/08/26 06:41:42;;;;;;;21.73;14.30;;;24.30;1.00;;;;;;5031007;28;20877;-83
2022/08/26 06:44:09;;;;;;;18.80;14.83;;;24.40;1.00;;;;;;5026200;28;20543;-82
2022/08/26 06:46:37;;;;;;;18.03;14.20;;;24.50;1.00;;;;;;5028047;28;20988;-83
2022/08/26 06:49:04;;;;;;;21.17;14.10;;;24.50;1.00;;;;;;5031085;28;20462;-82
2022/08/26 06:51:33;;;;;;;22.60;14.83;;;24.70;1.00;;;;;;5031185;28;20481;-82
2022/08/26 06:54:01;;;;;;;26.47;14.50;;;24.80;1.00;;;;;;5029149;28;20475;-83
2022/08/26 06:56:34;;;;;;;20.13;13.43;;;24.90;1.00;;;;;;5024793;28;20544;-82
2022/08/26 06:59:02;;;;;;;20.03;15.40;;;24.90;1.00;;;;;;5027261;28;20549;-82
2022/08/26 07:01:30;;;;;;;21.50;15.30;;;25.00;1.00;;;;;;5027204;28;20576;-83
2022/08/26 07:04:00;;;;;;;18.43;13.77;;;25.10;1.00;;;;;;5032124;28;20494;-84
2022/08/26 07:06:28;;;;;;;22.93;16.10;;;25.20;1.00;;;;;;5027502;28;20889;-83
2022/08/26 07:09:02;;;;;;;19.60;17.33;;;25.30;1.00;;;;;;5027594;28;20488;-83
2022/08/26 07:11:31;;;;;;;24.63;16.20;;;25.40;1.00;;;;;;5024899;28;20578;-84
2022/08/26 07:13:58;;;;;;;30.50;21.70;;;25.60;1.00;;;;;;5029073;28;20457;-84
2022/08/26 07:16:26;;;;;;;23.90;16.90;;;25.60;1.00;;;;;;5030043;28;20442;-83
2022/08/26 07:18:54;;;;;;;22.67;17.23;;;25.70;1.00;;;;;;5032732;28;20461;-84
2022/08/26 07:21:23;;;;;;;20.53;15.90;;;25.70;1.00;;;;;;5032393;28;20951;-83
2022/08/26 07:23:50;;;;;;;19.90;13.80;;;25.80;1.00;;;;;;5032354;28;20493;-84
2022/08/26 07:26:19;;;;;;;22.20;14.20;;;25.90;1.00;;;;;;5032626;28;20492;-82
2022/08/26 07:28:51;;;;;;;24.07;14.43;;;26.00;1.00;;;;;;5034068;28;20493;-84
2022/08/26 07:31:20;;;;;;;24.80;15.13;;;26.00;1.00;;;;;;5029574;28;21255;-82
2022/08/26 07:33:47;;;;;;;28.23;13.30;;;26.10;1.00;;;;;;5029260;28;20453;-84
2022/08/26 07:36:16;;;;;;;16.97;13.13;;;26.20;1.00;;;;;;5027517;28;20461;-83
2022/08/26 07:38:44;;;;;;;18.37;13.67;;;26.30;1.00;;;;;;5028219;28;20469;-82
2022/08/26 07:41:13;;;;;;;16.30;13.13;;;26.40;1.00;;;;;;5028330;28;20473;-84
2022/08/26 07:43:40;;;;;;;21.67;13.73;;;26.70;1.00;;;;;;5028899;28;20473;-85
2022/08/26 07:46:08;;;;;;;18.00;12.80;;;26.80;1.00;;;;;;5027639;28;20466;-83
2022/08/26 07:48:36;;;;;;;19.90;13.50;;;27.00;1.00;;;;;;5020242;28;20446;-84
2022/08/26 07:51:04;;;;;;;20.00;14.13;;;27.10;1.00;;;;;;5027156;28;20583;-85
2022/08/26 07:53:33;;;;;;;22.00;11.70;;;27.30;1.00;;;;;;5028257;28;20461;-84
2022/08/26 07:56:00;;;;;;;18.73;12.37;;;27.40;1.00;;;;;;5030160;28;21002;-84
2022/08/26 07:58:27;;;;;;;16.70;13.30;;;27.50;1.00;;;;;;5030510;28;20462;-83
2022/08/26 08:00:55;;;;;;;17.10;11.10;;;27.50;1.00;;;;;;5027974;28;20476;-82
2022/08/26 08:03:24;;;;;;;21.93;12.27;;;27.70;1.00;;;;;;5029552;28;20440;-83
2022/08/26 08:05:51;;;;;;;18.83;12.47;;;27.70;1.00;;;;;;5025435;28;20437;-83
2022/08/26 08:08:20;;;;;;;19.07;12.67;;;27.90;1.00;;;;;;5022760;28;20477;-81
2022/08/26 08:10:47;;;;;;;20.67;12.13;;;27.90;1.00;;;;;;5025500;28;20977;-84
2022/08/26 08:13:14;;;;;;;24.37;12.50;;;28.00;1.00;;;;;;5025601;28;20445;-82
2022/08/26 08:15:41;;;;;;;15.17;11.73;;;28.00;1.00;;;;;;5021233;28;20430;-82
2022/08/26 08:18:08;;;;;;;22.20;12.13;;;28.00;1.00;;;;;;5028092;28;20473;-82
2022/08/26 08:20:36;;;;;;;15.47;11.70;;;28.00;1.00;;;;;;5023544;28;20560;-84
2022/08/26 08:23:04;;;;;;;23.87;12.03;;;28.00;1.00;;;;;;5025722;28;20476;-84
2022/08/26 08:25:33;;;;;;;17.40;12.87;;;28.20;1.00;;;;;;5024742;28;21055;-83
2022/08/26 08:28:00;;;;;;;20.43;12.53;;;28.40;1.00;;;;;;5031360;28;20611;-82
2022/08/26 08:30:28;;;;;;;21.70;13.43;;;28.60;1.00;;;;;;5033224;28;20488;-83
2022/08/26 08:32:55;;;;;;;18.73;11.63;;;28.80;1.00;;;;;;5039322;28;20457;-84
2022/08/26 08:35:25;;;;;;;18.80;10.30;;;28.90;1.00;;;;;;5040490;28;20469;-84
2022/08/26 08:37:55;;;;;;;16.13;12.07;;;29.10;1.00;;;;;;5040089;28;20421;-81
2022/08/26 08:40:24;;;;;;;19.57;10.97;;;29.30;1.00;;;;;;5028451;28;20925;-83
2022/08/26 08:43:00;;;;;;;14.67;10.13;;;29.50;1.00;;;;;;5033059;28;20899;-83
2022/08/26 08:45:33;;;;;;;22.00;12.60;;;29.80;1.00;;;;;;5031580;28;20480;-84
2022/08/26 08:48:02;;;;;;;21.33;11.30;;;30.00;1.00;;;;;;5033385;28;20486;-83
2022/08/26 08:50:32;;;;;;;26.43;11.00;;;30.20;1.00;;;;;;5033934;28;20455;-84
2022/08/26 08:53:09;;;;;;;19.63;11.50;;;30.30;1.00;;;;;;5036612;28;20543;-84
2022/08/26 08:55:47;;;;;;;20.43;11.23;;;30.30;1.00;;;;;;5031543;28;20921;-83
2022/08/26 08:58:19;;;;;;;19.27;9.90;;;30.50;1.00;;;;;;5035205;28;20556;-85
2022/08/26 09:00:54;;;;;;;15.10;10.13;;;30.60;1.00;;;;;;5032752;28;20556;-84
2022/08/26 09:03:43;;;;;;;16.10;9.90;;;30.70;1.00;;;;;;5034323;28;20434;-84
2022/08/26 09:06:16;;;;;;;19.53;10.77;;;30.80;1.00;;;;;;5031820;28;20430;-84
2022/08/26 09:08:49;;;;;;;20.43;9.40;;;30.70;1.00;;;;;;5031854;28;20478;-80
2022/08/26 09:11:17;;;;;;;18.73;10.07;;;30.70;1.00;;;;;;5023804;28;20543;-81
2022/08/26 09:13:48;;;;;;;18.67;10.73;;;30.70;1.00;;;;;;5026950;28;20481;-82
2022/08/26 09:16:18;;;;;;;22.57;10.37;;;30.90;1.00;;;;;;5035305;28;20433;-84
2022/08/26 09:19:04;;;;;;;21.37;11.27;;;31.10;1.00;;;;;;5038814;28;20464;-85
2022/08/26 09:21:32;;;;;;;24.47;10.37;;;31.20;1.00;;;;;;5030857;28;20551;-84
2022/08/26 09:24:02;;;;;;;21.63;12.40;;;31.50;1.00;;;;;;5032885;28;20573;-86
2022/08/26 09:26:42;;;;;;;19.00;10.60;;;31.60;1.00;;;;;;5040639;28;20441;-85
2022/08/26 09:29:19;;;;;;;17.67;10.30;;;31.60;1.00;;;;;;5038089;28;20422;-87
2022/08/26 09:31:47;;;;;;;22.20;10.70;;;32.10;1.00;;;;;;5035682;28;20508;-87
2022/08/26 09:34:17;;;;;;;18.53;8.80;;;32.60;1.00;;;;;;5037915;28;20551;-86
2022/08/26 09:36:47;;;;;;;16.30;9.10;;;32.80;1.00;;;;;;5040228;28;20951;-85
2022/08/26 09:39:31;;;;;;;18.50;10.03;;;32.90;1.00;;;;;;5035362;28;20441;-85
2022/08/26 09:42:11;;;;;;;16.43;8.83;;;33.10;1.00;;;;;;5031644;28;20532;-86
2022/08/26 09:44:56;;;;;;;24.13;10.60;;;33.70;1.00;;;;;;5032864;28;20421;-84
2022/08/26 09:47:28;;;;;;;25.63;11.03;;;34.10;1.00;;;;;;5031894;28;20433;-85
2022/08/26 09:50:04;;;;;;;19.03;8.77;;;34.40;1.00;;;;;;5037022;28;20461;-87
2022/08/26 09:52:38;;;;;;;20.70;9.37;;;34.60;1.00;;;;;;5034255;28;20843;-87
2022/08/26 09:55:15;;;;;;;17.70;8.23;;;34.60;1.00;;;;;;5031028;28;20471;-89
2022/08/26 09:57:47;;;;;;;20.37;8.57;;;34.70;1.00;;;;;;5044267;28;20461;-86
2022/08/26 10:00:27;;;;;;;17.97;9.20;;;34.50;1.00;;;;;;5031681;28;20509;-86
2022/08/26 10:02:55;;;;;;;18.07;9.40;;;34.40;1.00;;;;;;5033536;28;20552;-88
2022/08/26 10:05:30;;;;;;;19.33;9.63;;;34.50;1.00;;;;;;5031638;28;20549;-85
2022/08/26 10:07:59;;;;;;;26.77;8.97;;;34.70;1.00;;;;;;5018091;28;20526;-84
2022/08/26 10:10:31;;;;;;;18.37;8.87;;;35.10;1.00;;;;;;5032301;28;20596;-85
2022/08/26 10:13:04;;;;;;;20.13;8.53;;;35.90;1.00;;;;;;5030795;28;20475;-86
2022/08/26 10:15:41;;;;;;;19.93;8.67;;;36.50;1.00;;;;;;5031922;28;20433;-86
2022/08/26 10:18:15;;;;;;;17.73;8.20;;;36.90;1.00;;;;;;5035491;28;20434;-85
2022/08/26 10:20:54;;;;;;;27.40;9.97;;;37.30;1.00;;;;;;5020485;28;20429;-84
2022/08/26 10:23:25;;;;;;;22.43;8.70;;;37.30;1.00;;;;;;5032856;28;20934;-82
2022/08/26 10:26:08;;;;;;;22.47;9.03;;;37.20;1.00;;;;;;5040070;28;20649;-84
2022/08/26 10:28:40;;;;;;;17.17;8.73;;;38.00;1.00;;;;;;5032553;28;20536;-86
2022/08/26 10:31:25;;;;;;;16.63;7.50;;;38.80;1.00;;;;;;5032786;28;20468;-87
2022/08/26 10:33:53;;;;;;;19.63;9.40;;;39.30;1.00;;;;;;5022341;28;20992;-84
2022/08/26 10:39:14;;;;;;;21.73;8.37;;;39.60;1.00;;;;;;5035240;28;21024;-87
2022/08/26 10:41:45;;;;;;;19.60;8.80;;;40.20;1.00;;;;;;5035471;28;20481;-85
2022/08/26 10:44:14;;;;;;;20.50;10.33;;;40.10;1.00;;;;;;5037814;28;21102;-86
2022/08/26 10:46:46;;;;;;;16.57;9.67;;;40.00;1.00;;;;;;5028919;28;20445;-86
2022/08/26 10:49:16;;;;;;;19.83;8.60;;;39.70;1.00;;;;;;5044308;28;20504;-85
2022/08/26 10:51:50;;;;;;;25.93;10.17;;;40.20;1.00;;;;;;5022465;28;20485;-79
2022/08/26 10:54:22;;;;;;;16.13;8.87;;;40.90;1.00;;;;;;5028844;28;20473;-80
2022/08/26 10:56:57;;;;;;;17.87;8.80;;;40.30;1.00;;;;;;5035124;28;21009;-79
2022/08/26 10:59:39;;;;;;;19.67;9.57;;;38.80;1.00;;;;;;5025236;28;21874;-79
2022/08/26 11:02:11;;;;;;;17.00;9.60;;;37.90;1.00;;;;;;5030987;28;20483;-79
2022/08/26 11:04:50;;;;;;;27.57;10.43;;;37.70;1.00;;;;;;5025551;28;20561;-80
2022/08/26 11:07:39;;;;;;;17.90;9.63;;;36.90;1.00;;;;;;5024636;28;20480;-82
2022/08/26 11:13:56;;;;;;;15.40;10.80;;;34.80;1.00;;;;;;5001209;28;20509;-81
2022/08/26 11:16:39;;;;;;;26.07;12.07;;;33.80;1.00;;;;;;5024229;28;20608;-78
2022/08/26 11:19:09;;;;;;;18.33;10.83;;;33.20;1.00;;;;;;5029400;28;20955;-81
2022/08/26 11:21:51;;;;;;;22.40;11.57;;;32.80;1.00;;;;;;5025524;28;20461;-79
2022/08/26 11:24:45;;;;;;;30.53;12.77;;;32.50;1.00;;;;;;5024865;28;20845;-79
2022/08/26 11:28:05;;;;;;;17.50;10.03;;;32.30;1.00;;;;;;5031265;28;20527;-79
2022/08/26 11:30:49;;;;;;;18.60;10.13;;;32.20;1.00;;;;;;5024670;28;20457;-79
2022/08/26 11:33:58;;;;;;;18.70;10.97;;;32.00;1.00;;;;;;5026605;28;20428;-81
2022/08/26 11:37:02;;;;;;;32.43;24.03;;;31.80;1.00;;;;;;5028535;28;20553;-79
2022/08/26 11:39:33;;;;;;;24.93;11.60;;;31.60;1.00;;;;;;5020032;28;20479;-79
2022/08/26 11:42:06;;;;;;;24.07;11.30;;;31.40;1.00;;;;;;5030554;28;20448;-81
2022/08/26 11:44:39;;;;;;;19.80;10.43;;;31.20;1.00;;;;;;5027666;28;20536;-79
2022/08/26 11:47:09;;;;;;;24.90;10.47;;;31.00;1.00;;;;;;5023044;28;20465;-80
2022/08/26 11:49:36;;;;;;;19.53;12.70;;;30.80;1.00;;;;;;5027195;28;20898;-79
2022/08/26 11:52:17;;;;;;;19.00;11.20;;;30.70;1.00;;;;;;5033626;28;20538;-79
2022/08/26 11:55:01;;;;;;;22.80;11.77;;;30.60;1.00;;;;;;5031565;28;20445;-80
2022/08/26 11:57:28;;;;;;;22.73;12.40;;;30.50;1.00;;;;;;5037926;28;20539;-79
2022/08/26 11:59:56;;;;;;;25.53;12.00;;;30.40;1.00;;;;;;5029770;28;20461;-79
2022/08/26 12:02:23;;;;;;;26.73;12.07;;;30.30;1.00;;;;;;5030883;28;20477;-79
2022/08/26 12:04:52;;;;;;;23.80;12.27;;;29.90;1.00;;;;;;5027072;28;20510;-80
2022/08/26 12:07:26;;;;;;;24.83;13.30;;;29.30;1.00;;;;;;5038659;28;20560;-79
2022/08/26 12:09:57;;;;;;;18.50;12.53;;;28.40;1.00;;;;;;5031010;28;20473;-79
2022/08/26 12:12:29;;;;;;;23.57;14.80;;;27.30;1.00;;;;;;5030021;28;20476;-79
2022/08/26 12:15:12;;;;;;;23.33;14.70;;;26.50;1.00;;;;;;5008263;28;20462;-81
2022/08/26 12:17:40;;;;;;;13.37;8.50;;;25.80;1.00;;;;;;5029083;28;20472;-79
2022/08/26 12:20:19;;;;;;;13.63;8.00;;;25.10;1.00;;;;;;5032088;28;20472;-79
2022/08/26 12:22:51;;;;;;;11.03;6.97;;;24.50;1.00;;;;;;5037201;28;21243;-79
2022/08/26 12:25:27;;;;;;;10.90;5.97;;;24.00;1.00;;;;;;5032387;28;20460;-79
2022/08/26 12:28:09;;;;;;;12.33;7.50;;;23.50;1.00;;;;;;5032872;28;20937;-79
2022/08/26 12:30:42;;;;;;;13.20;7.53;;;23.10;1.00;;;;;;5033794;28;20469;-79
2022/08/26 12:33:14;;;;;;;11.77;8.03;;;22.90;1.00;;;;;;5033526;28;20864;-78
2022/08/26 12:35:41;;;;;;;11.00;7.47;;;22.60;1.00;;;;;;5029114;28;20457;-78
2022/08/26 12:38:13;;;;;;;12.27;7.00;;;22.40;1.00;;;;;;5029245;28;20487;-79
2022/08/26 12:40:42;;;;;;;12.43;8.43;;;22.30;1.00;;;;;;5033429;28;20550;-78
2022/08/26 12:43:14;;;;;;;11.70;6.70;;;22.20;1.00;;;;;;5025468;28;20469;-79
2022/08/26 12:45:43;;;;;;;13.27;7.97;;;22.10;1.00;;;;;;5012558;28;20888;-80
2022/08/26 12:48:12;;;;;;;15.93;7.30;;;21.90;1.00;;;;;;5035650;28;20456;-80
2022/08/26 12:50:47;;;;;;;11.33;7.20;;;21.90;1.00;;;;;;5044186;28;20452;-79
2022/08/26 12:53:22;;;;;;;11.90;8.10;;;21.80;1.00;;;;;;5031795;28;20484;-79
2022/08/26 12:55:53;;;;;;;13.27;8.03;;;21.70;1.00;;;;;;5027906;28;20476;-80
2022/08/26 12:58:28;;;;;;;11.10;7.37;;;21.60;1.00;;;;;;5029298;28;20457;-78
2022/08/26 13:00:58;;;;;;;12.20;7.53;;;21.50;1.00;;;;;;5031212;28;20469;-79
2022/08/26 13:03:31;;;;;;;14.23;8.23;;;21.50;1.00;;;;;;5029807;28;20417;-80
2022/08/26 13:06:10;;;;;;;13.70;7.43;;;21.50;1.00;;;;;;5028329;28;20469;-79
2022/08/26 13:08:42;;;;;;;14.53;8.40;;;21.40;1.00;;;;;;5011977;28;20583;-79